sensor_id;sensor_type;location;lat;lon;timestamp;temperature;humidity
13409;DHT22;6775;49.574;11.170;2023-03-03T00:00:53;2.20;99.90
13409;DHT22;6775;49.574;11.170;2023-03-03T00:03:23;2.20;99.90
13409;DHT22;6775;49.574;11.170;2023-03-03T00:05:51;2.30;99.90
13409;DHT22;6775;49.574;11.170;2023-03-03T00:08:20;2.20;99.90
13409;DHT22;6775;49.574;11.170;2023-03-03T00:10:49;2.10;99.90
13409;DHT22;6775;49.574;11.170;2023-03-03T00:13:19;2.00;99.90
13409;DHT22;6775;49.574;11.170;2023-03-03T00:15:48;1.90;99.90
13409;DHT22;6775;49.574;11.170;2023-03-03T00:18:21;2.00;99.90
13409;DHT22;6775;49.574;11.170;2023-03-03T00:20:54;2.00;99.90
13409;DHT22;6775;49.574;11.170;2023-03-03T00:23:28;2.00;99.90
13409;DHT22;6775;49.574;11.170;2023-03-03T00:25:57;2.00;99.90
13409;DHT22;6775;49.574;11.170;2023-03-03T00:28:28;2.00;99.90
13409;DHT22;6775;49.574;11.170;2023-03-03T00:30:59;2.00;99.90
13409;DHT22;6775;49.574;11.170;2023-03-03T00:33:31;2.10;99.90
13409;DHT22;6775;49.574;11.170;2023-03-03T00:36:20;2.10;99.90
13409;DHT22;6775;49.574;11.170;2023-03-03T00:38:49;2.10;99.90
13409;DHT22;6775;49.574;11.170;2023-03-03T00:41:19;2.10;99.90
13409;DHT22;6775;49.574;11.170;2023-03-03T00:43:49;2.00;99.90
13409;DHT22;6775;49.574;11.170;2023-03-03T00:46:20;1.90;99.90
13409;DHT22;6775;49.574;11.170;2023-03-03T00:48:49;1.80;99.90
13409;DHT22;6775;49.574;11.170;2023-03-03T00:51:25;1.70;99.90
13409;DHT22;6775;49.574;11.170;2023-03-03T00:53:54;1.70;99.90
13409;DHT22;6775;49.574;11.170;2023-03-03T00:56:23;1.70;99.90
13409;DHT22;6775;49.574;11.170;2023-03-03T00:58:50;1.70;99.90
13409;DHT22;6775;49.574;11.170;2023-03-03T01:01:20;1.70;99.90
13409;DHT22;6775;49.574;11.170;2023-03-03T01:03:48;1.60;99.90
13409;DHT22;6775;49.574;11.170;2023-03-03T01:06:16;1.50;99.90
13409;DHT22;6775;49.574;11.170;2023-03-03T01:08:43;1.50;99.90
13409;DHT22;6775;49.574;11.170;2023-03-03T01:11:13;1.50;99.90
13409;DHT22;6775;49.574;11.170;2023-03-03T01:13:44;1.60;99.90
13409;DHT22;6775;49.574;11.170;2023-03-03T01:16:12;1.50;99.90
13409;DHT22;6775;49.574;11.170;2023-03-03T01:18:42;1.40;99.90
13409;DHT22;6775;49.574;11.170;2023-03-03T01:21:10;1.50;99.90
13409;DHT22;6775;49.574;11.170;2023-03-03T01:23:38;1.50;99.90
13409;DHT22;6775;49.574;11.170;2023-03-03T01:26:06;1.60;99.90
13409;DHT22;6775;49.574;11.170;2023-03-03T01:28:34;1.60;99.90
13409;DHT22;6775;49.574;11.170;2023-03-03T01:31:04;1.60;99.90
13409;DHT22;6775;49.574;11.170;2023-03-03T01:33:33;1.50;99.90
13409;DHT22;6775;49.574;11.170;2023-03-03T01:36:03;1.50;99.90
13409;DHT22;6775;49.574;11.170;2023-03-03T01:38:31;1.40;99.90
13409;DHT22;6775;49.574;11.170;2023-03-03T01:40:59;1.40;99.90
13409;DHT22;6775;49.574;11.170;2023-03-03T01:43:28;1.40;99.90
13409;DHT22;6775;49.574;11.170;2023-03-03T01:46:21;1.40;99.90
13409;DHT22;6775;49.574;11.170;2023-03-03T01:48:56;1.60;99.90
13409;DHT22;6775;49.574;11.170;2023-03-03T01:51:32;1.60;99.90
13409;DHT22;6775;49.574;11.170;2023-03-03T01:54:02;1.70;99.90
13409;DHT22;6775;49.574;11.170;2023-03-03T01:56:31;1.70;99.90
13409;DHT22;6775;49.574;11.170;2023-03-03T01:59:02;1.80;99.90
13409;DHT22;6775;49.574;11.170;2023-03-03T02:01:32;1.70;99.90
13409;DHT22;6775;49.574;11.170;2023-03-03T02:04:01;1.70;99.90
13409;DHT22;6775;49.574;11.170;2023-03-03T02:06:33;1.60;99.90
13409;DHT22;6775;49.574;11.170;2023-03-03T02:09:05;1.50;99.90
13409;DHT22;6775;49.574;11.170;2023-03-03T02:11:36;1.40;99.90
13409;DHT22;6775;49.574;11.170;2023-03-03T02:14:04;1.40;99.90
13409;DHT22;6775;49.574;11.170;2023-03-03T02:16:32;1.40;99.90
13409;DHT22;6775;49.574;11.170;2023-03-03T02:19:00;1.30;99.90
13409;DHT22;6775;49.574;11.170;2023-03-03T02:21:30;1.30;99.90
13409;DHT22;6775;49.574;11.170;2023-03-03T02:24:02;1.30;99.90
13409;DHT22;6775;49.574;11.170;2023-03-03T02:26:39;1.30;99.90
13409;DHT22;6775;49.574;11.170;2023-03-03T02:29:08;1.30;99.90
13409;DHT22;6775;49.574;11.170;2023-03-03T02:31:36;1.30;99.90
13409;DHT22;6775;49.574;11.170;2023-03-03T02:34:05;1.30;99.90
13409;DHT22;6775;49.574;11.170;2023-03-03T02:36:35;1.20;99.90
13409;DHT22;6775;49.574;11.170;2023-03-03T02:39:06;1.10;99.90
13409;DHT22;6775;49.574;11.170;2023-03-03T02:41:40;1.10;99.90
13409;DHT22;6775;49.574;11.170;2023-03-03T02:44:11;1.20;99.90
13409;DHT22;6775;49.574;11.170;2023-03-03T02:46:41;1.10;99.90
13409;DHT22;6775;49.574;11.170;2023-03-03T02:49:11;1.20;99.90
13409;DHT22;6775;49.574;11.170;2023-03-03T02:51:40;1.20;99.90
13409;DHT22;6775;49.574;11.170;2023-03-03T02:54:09;1.30;99.90
13409;DHT22;6775;49.574;11.170;2023-03-03T02:56:40;1.40;99.90
13409;DHT22;6775;49.574;11.170;2023-03-03T02:59:08;1.50;99.90
13409;DHT22;6775;49.574;11.170;2023-03-03T03:01:36;1.60;99.90
13409;DHT22;6775;49.574;11.170;2023-03-03T03:04:06;1.60;99.90
13409;DHT22;6775;49.574;11.170;2023-03-03T03:06:35;1.50;99.90
13409;DHT22;6775;49.574;11.170;2023-03-03T03:09:04;1.30;99.90
13409;DHT22;6775;49.574;11.170;2023-03-03T03:11:32;1.10;99.90
13409;DHT22;6775;49.574;11.170;2023-03-03T03:14:02;1.00;99.90
13409;DHT22;6775;49.574;11.170;2023-03-03T03:16:30;1.00;99.90
13409;DHT22;6775;49.574;11.170;2023-03-03T03:18:59;1.10;99.90
13409;DHT22;6775;49.574;11.170;2023-03-03T03:21:27;1.20;99.90
13409;DHT22;6775;49.574;11.170;2023-03-03T03:23:55;1.30;99.90
13409;DHT22;6775;49.574;11.170;2023-03-03T03:26:23;1.40;99.90
13409;DHT22;6775;49.574;11.170;2023-03-03T03:28:51;1.50;99.90
13409;DHT22;6775;49.574;11.170;2023-03-03T03:31:21;1.50;99.90
13409;DHT22;6775;49.574;11.170;2023-03-03T03:33:49;1.40;99.90
13409;DHT22;6775;49.574;11.170;2023-03-03T03:36:18;1.30;99.90
13409;DHT22;6775;49.574;11.170;2023-03-03T03:38:46;1.30;99.90
13409;DHT22;6775;49.574;11.170;2023-03-03T03:41:14;1.20;99.90
13409;DHT22;6775;49.574;11.170;2023-03-03T03:43:41;1.20;99.90
13409;DHT22;6775;49.574;11.170;2023-03-03T03:46:09;1.10;99.90
13409;DHT22;6775;49.574;11.170;2023-03-03T03:48:39;1.00;99.90
13409;DHT22;6775;49.574;11.170;2023-03-03T03:51:06;0.90;99.90
13409;DHT22;6775;49.574;11.170;2023-03-03T03:53:34;0.80;99.90
13409;DHT22;6775;49.574;11.170;2023-03-03T03:56:02;0.80;99.90
13409;DHT22;6775;49.574;11.170;2023-03-03T03:58:30;0.80;99.90
13409;DHT22;6775;49.574;11.170;2023-03-03T04:01:01;0.80;99.90
13409;DHT22;6775;49.574;11.170;2023-03-03T04:03:29;0.80;99.90
13409;DHT22;6775;49.574;11.170;2023-03-03T04:05:59;0.70;99.90
13409;DHT22;6775;49.574;11.170;2023-03-03T04:08:26;0.60;99.90
13409;DHT22;6775;49.574;11.170;2023-03-03T04:10:54;0.50;99.90
13409;DHT22;6775;49.574;11.170;2023-03-03T04:13:22;0.50;99.90
13409;DHT22;6775;49.574;11.170;2023-03-03T04:15:50;0.60;99.90
13409;DHT22;6775;49.574;11.170;2023-03-03T04:18:18;0.70;99.90
13409;DHT22;6775;49.574;11.170;2023-03-03T04:20:45;0.70;99.90
13409;DHT22;6775;49.574;11.170;2023-03-03T04:23:15;0.60;99.90
13409;DHT22;6775;49.574;11.170;2023-03-03T04:25:43;0.50;99.90
13409;DHT22;6775;49.574;11.170;2023-03-03T04:28:12;0.40;99.90
13409;DHT22;6775;49.574;11.170;2023-03-03T04:30:40;0.40;99.90
13409;DHT22;6775;49.574;11.170;2023-03-03T04:33:08;0.30;99.90
13409;DHT22;6775;49.574;11.170;2023-03-03T04:35:36;0.20;99.90
13409;DHT22;6775;49.574;11.170;2023-03-03T04:38:03;0.10;99.90
13409;DHT22;6775;49.574;11.170;2023-03-03T04:40:33;0.10;99.90
13409;DHT22;6775;49.574;11.170;2023-03-03T04:43:00;0.10;99.90
13409;DHT22;6775;49.574;11.170;2023-03-03T04:45:29;0.20;99.90
13409;DHT22;6775;49.574;11.170;2023-03-03T04:47:57;0.30;99.90
13409;DHT22;6775;49.574;11.170;2023-03-03T04:50:25;0.50;99.90
13409;DHT22;6775;49.574;11.170;2023-03-03T04:52:52;0.50;99.90
13409;DHT22;6775;49.574;11.170;2023-03-03T04:55:20;0.50;99.90
13409;DHT22;6775;49.574;11.170;2023-03-03T04:57:50;0.40;99.90
13409;DHT22;6775;49.574;11.170;2023-03-03T05:00:18;0.40;99.90
13409;DHT22;6775;49.574;11.170;2023-03-03T05:02:47;0.30;99.90
13409;DHT22;6775;49.574;11.170;2023-03-03T05:05:15;0.30;99.90
13409;DHT22;6775;49.574;11.170;2023-03-03T05:07:42;0.30;99.90
13409;DHT22;6775;49.574;11.170;2023-03-03T05:10:10;0.30;99.90
13409;DHT22;6775;49.574;11.170;2023-03-03T05:12:38;0.30;99.90
13409;DHT22;6775;49.574;11.170;2023-03-03T05:15:08;0.30;99.90
13409;DHT22;6775;49.574;11.170;2023-03-03T05:17:36;0.30;99.90
13409;DHT22;6775;49.574;11.170;2023-03-03T05:20:05;0.30;99.90
13409;DHT22;6775;49.574;11.170;2023-03-03T05:22:34;0.40;99.90
13409;DHT22;6775;49.574;11.170;2023-03-03T05:25:01;0.30;99.90
13409;DHT22;6775;49.574;11.170;2023-03-03T05:27:29;0.30;99.90
13409;DHT22;6775;49.574;11.170;2023-03-03T05:29:57;0.30;99.90
13409;DHT22;6775;49.574;11.170;2023-03-03T05:32:26;0.40;99.90
13409;DHT22;6775;49.574;11.170;2023-03-03T05:34:54;0.30;99.90
13409;DHT22;6775;49.574;11.170;2023-03-03T05:37:22;0.30;99.90
13409;DHT22;6775;49.574;11.170;2023-03-03T05:39:50;0.30;99.90
13409;DHT22;6775;49.574;11.170;2023-03-03T05:42:18;0.30;99.90
13409;DHT22;6775;49.574;11.170;2023-03-03T05:44:47;0.20;99.90
13409;DHT22;6775;49.574;11.170;2023-03-03T05:47:15;0.20;99.90
13409;DHT22;6775;49.574;11.170;2023-03-03T05:49:44;0.20;99.90
13409;DHT22;6775;49.574;11.170;2023-03-03T05:52:12;0.20;99.90
13409;DHT22;6775;49.574;11.170;2023-03-03T05:54:39;0.30;99.90
13409;DHT22;6775;49.574;11.170;2023-03-03T05:57:07;0.30;99.90
13409;DHT22;6775;49.574;11.170;2023-03-03T05:59:35;0.30;99.90
13409;DHT22;6775;49.574;11.170;2023-03-03T06:02:03;0.40;99.90
13409;DHT22;6775;49.574;11.170;2023-03-03T06:04:31;0.40;99.90
13409;DHT22;6775;49.574;11.170;2023-03-03T06:07:00;0.40;99.90
13409;DHT22;6775;49.574;11.170;2023-03-03T06:09:28;0.40;99.90
13409;DHT22;6775;49.574;11.170;2023-03-03T06:11:56;0.30;99.90
13409;DHT22;6775;49.574;11.170;2023-03-03T06:14:24;0.30;99.90
13409;DHT22;6775;49.574;11.170;2023-03-03T06:16:53;0.30;99.90
13409;DHT22;6775;49.574;11.170;2023-03-03T06:19:20;0.20;99.90
13409;DHT22;6775;49.574;11.170;2023-03-03T06:21:48;0.10;99.90
13409;DHT22;6775;49.574;11.170;2023-03-03T06:24:17;0.10;99.90
13409;DHT22;6775;49.574;11.170;2023-03-03T06:26:45;0.10;99.90
13409;DHT22;6775;49.574;11.170;2023-03-03T06:29:13;0.10;99.90
13409;DHT22;6775;49.574;11.170;2023-03-03T06:31:42;0.10;99.90
13409;DHT22;6775;49.574;11.170;2023-03-03T06:34:10;0.10;99.90
13409;DHT22;6775;49.574;11.170;2023-03-03T06:36:38;0.30;99.90
13409;DHT22;6775;49.574;11.170;2023-03-03T06:39:05;0.40;99.90
13409;DHT22;6775;49.574;11.170;2023-03-03T06:41:35;0.50;99.90
13409;DHT22;6775;49.574;11.170;2023-03-03T06:44:03;0.60;99.90
13409;DHT22;6775;49.574;11.170;2023-03-03T06:46:31;0.60;99.90
13409;DHT22;6775;49.574;11.170;2023-03-03T06:48:58;0.50;99.90
13409;DHT22;6775;49.574;11.170;2023-03-03T06:51:30;0.50;99.90
13409;DHT22;6775;49.574;11.170;2023-03-03T06:54:01;0.50;99.90
13409;DHT22;6775;49.574;11.170;2023-03-03T06:56:36;0.60;99.90
13409;DHT22;6775;49.574;11.170;2023-03-03T06:59:10;0.60;99.90
13409;DHT22;6775;49.574;11.170;2023-03-03T07:01:39;0.70;99.90
13409;DHT22;6775;49.574;11.170;2023-03-03T07:04:14;0.80;99.90
13409;DHT22;6775;49.574;11.170;2023-03-03T07:06:43;0.90;99.90
13409;DHT22;6775;49.574;11.170;2023-03-03T07:09:17;1.00;99.90
13409;DHT22;6775;49.574;11.170;2023-03-03T07:11:47;1.10;99.90
13409;DHT22;6775;49.574;11.170;2023-03-03T07:14:17;1.30;99.90
13409;DHT22;6775;49.574;11.170;2023-03-03T07:16:45;1.40;99.90
13409;DHT22;6775;49.574;11.170;2023-03-03T07:19:18;1.70;99.90
13409;DHT22;6775;49.574;11.170;2023-03-03T07:21:47;1.80;99.90
13409;DHT22;6775;49.574;11.170;2023-03-03T07:24:24;1.90;99.90
13409;DHT22;6775;49.574;11.170;2023-03-03T07:26:58;2.00;99.90
13409;DHT22;6775;49.574;11.170;2023-03-03T07:29:28;2.10;99.90
13409;DHT22;6775;49.574;11.170;2023-03-03T07:31:57;2.30;99.90
13409;DHT22;6775;49.574;11.170;2023-03-03T07:34:30;2.40;99.90
13409;DHT22;6775;49.574;11.170;2023-03-03T07:37:09;2.60;99.90
13409;DHT22;6775;49.574;11.170;2023-03-03T07:39:44;2.80;99.90
13409;DHT22;6775;49.574;11.170;2023-03-03T07:42:20;3.00;99.90
13409;DHT22;6775;49.574;11.170;2023-03-03T07:44:50;3.30;99.90
13409;DHT22;6775;49.574;11.170;2023-03-03T07:47:21;3.50;99.90
13409;DHT22;6775;49.574;11.170;2023-03-03T07:49:50;3.70;99.90
13409;DHT22;6775;49.574;11.170;2023-03-03T07:52:24;3.90;99.90
13409;DHT22;6775;49.574;11.170;2023-03-03T07:54:52;4.10;99.90
13409;DHT22;6775;49.574;11.170;2023-03-03T07:57:25;4.30;99.90
13409;DHT22;6775;49.574;11.170;2023-03-03T07:59:54;4.50;99.90
13409;DHT22;6775;49.574;11.170;2023-03-03T08:02:38;4.70;99.90
13409;DHT22;6775;49.574;11.170;2023-03-03T08:05:26;4.90;99.90
13409;DHT22;6775;49.574;11.170;2023-03-03T08:08:01;5.10;99.90
13409;DHT22;6775;49.574;11.170;2023-03-03T08:10:40;5.30;99.90
13409;DHT22;6775;49.574;11.170;2023-03-03T08:13:17;5.50;99.90
13409;DHT22;6775;49.574;11.170;2023-03-03T08:15:46;5.70;99.90
13409;DHT22;6775;49.574;11.170;2023-03-03T08:18:22;5.90;99.90
13409;DHT22;6775;49.574;11.170;2023-03-03T08:20:53;6.20;99.90
13409;DHT22;6775;49.574;11.170;2023-03-03T08:23:21;6.40;99.90
13409;DHT22;6775;49.574;11.170;2023-03-03T08:25:50;6.60;99.90
13409;DHT22;6775;49.574;11.170;2023-03-03T08:28:20;6.80;99.90
13409;DHT22;6775;49.574;11.170;2023-03-03T08:30:49;7.00;99.90
13409;DHT22;6775;49.574;11.170;2023-03-03T08:33:25;7.30;99.90
13409;DHT22;6775;49.574;11.170;2023-03-03T08:35:53;7.60;99.90
13409;DHT22;6775;49.574;11.170;2023-03-03T08:38:21;7.80;99.90
13409;DHT22;6775;49.574;11.170;2023-03-03T08:40:49;7.90;99.90
13409;DHT22;6775;49.574;11.170;2023-03-03T08:43:17;8.20;99.90
13409;DHT22;6775;49.574;11.170;2023-03-03T08:45:50;8.50;99.90
13409;DHT22;6775;49.574;11.170;2023-03-03T08:48:25;9.30;99.90
13409;DHT22;6775;49.574;11.170;2023-03-03T08:50:53;10.80;96.50
13409;DHT22;6775;49.574;11.170;2023-03-03T08:53:22;12.50;91.20
13409;DHT22;6775;49.574;11.170;2023-03-03T08:55:50;14.50;81.50
13409;DHT22;6775;49.574;11.170;2023-03-03T08:58:19;16.50;70.40
13409;DHT22;6775;49.574;11.170;2023-03-03T09:01:01;18.20;61.70
13409;DHT22;6775;49.574;11.170;2023-03-03T09:03:30;20.20;53.90
13409;DHT22;6775;49.574;11.170;2023-03-03T09:05:58;21.70;49.40
13409;DHT22;6775;49.574;11.170;2023-03-03T09:08:26;23.30;45.50
13409;DHT22;6775;49.574;11.170;2023-03-03T09:10:53;24.50;41.70
13409;DHT22;6775;49.574;11.170;2023-03-03T09:13:21;25.40;39.20
13409;DHT22;6775;49.574;11.170;2023-03-03T09:15:49;26.10;37.50
13409;DHT22;6775;49.574;11.170;2023-03-03T09:18:20;26.90;35.60
13409;DHT22;6775;49.574;11.170;2023-03-03T09:20:49;27.40;33.90
13409;DHT22;6775;49.574;11.170;2023-03-03T09:23:30;27.80;32.80
13409;DHT22;6775;49.574;11.170;2023-03-03T09:29:16;28.60;31.30
13409;DHT22;6775;49.574;11.170;2023-03-03T09:31:48;29.20;30.00
13409;DHT22;6775;49.574;11.170;2023-03-03T09:34:22;29.50;29.60
13409;DHT22;6775;49.574;11.170;2023-03-03T09:36:51;29.80;28.90
13409;DHT22;6775;49.574;11.170;2023-03-03T09:39:21;29.90;28.90
13409;DHT22;6775;49.574;11.170;2023-03-03T09:42:12;30.40;28.50
13409;DHT22;6775;49.574;11.170;2023-03-03T09:45:07;30.70;27.80
13409;DHT22;6775;49.574;11.170;2023-03-03T09:47:51;30.90;27.30
13409;DHT22;6775;49.574;11.170;2023-03-03T09:50:29;30.90;26.60
13409;DHT22;6775;49.574;11.170;2023-03-03T09:53:18;30.80;26.70
13409;DHT22;6775;49.574;11.170;2023-03-03T09:55:53;31.10;26.70
13409;DHT22;6775;49.574;11.170;2023-03-03T09:58:52;31.50;26.60
13409;DHT22;6775;49.574;11.170;2023-03-03T10:01:37;31.50;26.00
13409;DHT22;6775;49.574;11.170;2023-03-03T10:04:31;31.50;25.90
13409;DHT22;6775;49.574;11.170;2023-03-03T10:07:18;31.50;26.00
13409;DHT22;6775;49.574;11.170;2023-03-03T10:10:02;31.80;25.70
13409;DHT22;6775;49.574;11.170;2023-03-03T10:12:36;31.90;24.90
13409;DHT22;6775;49.574;11.170;2023-03-03T10:15:16;31.90;25.00
13409;DHT22;6775;49.574;11.170;2023-03-03T10:17:49;32.10;25.40
13409;DHT22;6775;49.574;11.170;2023-03-03T10:20:49;32.30;25.10
13409;DHT22;6775;49.574;11.170;2023-03-03T10:23:31;32.70;24.20
13409;DHT22;6775;49.574;11.170;2023-03-03T10:26:12;32.60;24.10
13409;DHT22;6775;49.574;11.170;2023-03-03T10:29:06;32.60;24.10
13409;DHT22;6775;49.574;11.170;2023-03-03T10:31:55;32.70;23.90
13409;DHT22;6775;49.574;11.170;2023-03-03T10:34:44;32.90;23.70
13409;DHT22;6775;49.574;11.170;2023-03-03T10:37:18;33.20;23.60
13409;DHT22;6775;49.574;11.170;2023-03-03T10:40:08;33.40;23.40
13409;DHT22;6775;49.574;11.170;2023-03-03T10:42:47;33.70;23.20
13409;DHT22;6775;49.574;11.170;2023-03-03T10:45:30;33.60;22.90
13409;DHT22;6775;49.574;11.170;2023-03-03T10:48:10;33.50;23.40
13409;DHT22;6775;49.574;11.170;2023-03-03T10:50:50;33.50;23.60
13409;DHT22;6775;49.574;11.170;2023-03-03T10:53:31;33.50;23.30
13409;DHT22;6775;49.574;11.170;2023-03-03T10:56:14;33.50;23.10
13409;DHT22;6775;49.574;11.170;2023-03-03T10:58:56;33.60;22.80
13409;DHT22;6775;49.574;11.170;2023-03-03T11:01:33;33.50;23.10
13409;DHT22;6775;49.574;11.170;2023-03-03T11:04:23;33.60;23.30
13409;DHT22;6775;49.574;11.170;2023-03-03T11:06:56;33.50;23.10
13409;DHT22;6775;49.574;11.170;2023-03-03T11:09:41;33.50;22.80
13409;DHT22;6775;49.574;11.170;2023-03-03T11:12:22;33.00;23.20
13409;DHT22;6775;49.574;11.170;2023-03-03T11:15:12;32.40;23.80
13409;DHT22;6775;49.574;11.170;2023-03-03T11:17:57;31.80;22.60
13409;DHT22;6775;49.574;11.170;2023-03-03T11:20:33;31.10;24.10
13409;DHT22;6775;49.574;11.170;2023-03-03T11:23:18;31.30;24.40
13409;DHT22;6775;49.574;11.170;2023-03-03T11:25:53;31.40;24.10
13409;DHT22;6775;49.574;11.170;2023-03-03T11:28:46;31.40;24.10
13409;DHT22;6775;49.574;11.170;2023-03-03T11:31:23;31.40;23.80
13409;DHT22;6775;49.574;11.170;2023-03-03T11:34:02;31.30;24.30
13409;DHT22;6775;49.574;11.170;2023-03-03T11:36:35;31.40;24.50
13409;DHT22;6775;49.574;11.170;2023-03-03T11:39:06;31.30;24.60
13409;DHT22;6775;49.574;11.170;2023-03-03T11:41:39;31.00;24.50
13409;DHT22;6775;49.574;11.170;2023-03-03T11:44:17;30.60;25.10
13409;DHT22;6775;49.574;11.170;2023-03-03T11:46:49;30.50;24.50
13409;DHT22;6775;49.574;11.170;2023-03-03T11:49:23;30.20;24.70
13409;DHT22;6775;49.574;11.170;2023-03-03T11:52:02;29.80;24.80
13409;DHT22;6775;49.574;11.170;2023-03-03T11:54:35;29.60;25.70
13409;DHT22;6775;49.574;11.170;2023-03-03T11:57:14;29.70;25.70
13409;DHT22;6775;49.574;11.170;2023-03-03T11:59:50;29.80;25.00
13409;DHT22;6775;49.574;11.170;2023-03-03T12:02:34;29.80;25.00
13409;DHT22;6775;49.574;11.170;2023-03-03T12:05:15;30.00;24.80
13409;DHT22;6775;49.574;11.170;2023-03-03T12:07:53;29.90;24.50
13409;DHT22;6775;49.574;11.170;2023-03-03T12:10:29;29.80;25.30
13409;DHT22;6775;49.574;11.170;2023-03-03T12:13:02;29.60;25.30
13409;DHT22;6775;49.574;11.170;2023-03-03T12:15:39;29.00;25.40
13409;DHT22;6775;49.574;11.170;2023-03-03T12:18:25;28.90;25.80
13409;DHT22;6775;49.574;11.170;2023-03-03T12:21:04;28.80;25.90
13409;DHT22;6775;49.574;11.170;2023-03-03T12:23:51;28.80;26.40
13409;DHT22;6775;49.574;11.170;2023-03-03T12:26:26;28.80;26.40
13409;DHT22;6775;49.574;11.170;2023-03-03T12:29:00;28.70;26.40
13409;DHT22;6775;49.574;11.170;2023-03-03T12:31:38;28.80;26.20
13409;DHT22;6775;49.574;11.170;2023-03-03T12:34:15;28.90;26.40
13409;DHT22;6775;49.574;11.170;2023-03-03T12:36:55;29.00;26.00
13409;DHT22;6775;49.574;11.170;2023-03-03T12:39:37;29.00;25.90
13409;DHT22;6775;49.574;11.170;2023-03-03T12:42:14;28.70;26.00
13409;DHT22;6775;49.574;11.170;2023-03-03T12:44:47;28.60;26.50
13409;DHT22;6775;49.574;11.170;2023-03-03T12:47:23;28.60;26.50
13409;DHT22;6775;49.574;11.170;2023-03-03T12:50:00;28.40;26.80
13409;DHT22;6775;49.574;11.170;2023-03-03T12:52:41;28.40;26.50
13409;DHT22;6775;49.574;11.170;2023-03-03T12:55:20;28.30;26.70
13409;DHT22;6775;49.574;11.170;2023-03-03T12:57:56;28.30;26.70
13409;DHT22;6775;49.574;11.170;2023-03-03T13:00:38;28.30;26.80
13409;DHT22;6775;49.574;11.170;2023-03-03T13:03:20;28.40;26.80
13409;DHT22;6775;49.574;11.170;2023-03-03T13:06:03;28.10;26.90
13409;DHT22;6775;49.574;11.170;2023-03-03T13:08:45;28.00;26.80
13409;DHT22;6775;49.574;11.170;2023-03-03T13:11:26;27.90;26.90
13409;DHT22;6775;49.574;11.170;2023-03-03T13:14:06;27.70;27.20
13409;DHT22;6775;49.574;11.170;2023-03-03T13:16:42;27.60;27.20
13409;DHT22;6775;49.574;11.170;2023-03-03T13:19:15;27.50;27.40
13409;DHT22;6775;49.574;11.170;2023-03-03T13:21:48;27.50;27.40
13409;DHT22;6775;49.574;11.170;2023-03-03T13:24:22;27.40;27.40
13409;DHT22;6775;49.574;11.170;2023-03-03T13:26:55;27.30;27.40
13409;DHT22;6775;49.574;11.170;2023-03-03T13:29:26;27.20;27.50
13409;DHT22;6775;49.574;11.170;2023-03-03T13:32:00;27.10;27.20
13409;DHT22;6775;49.574;11.170;2023-03-03T13:34:38;26.90;27.40
13409;DHT22;6775;49.574;11.170;2023-03-03T13:37:14;26.80;27.70
13409;DHT22;6775;49.574;11.170;2023-03-03T13:39:54;26.60;28.00
13409;DHT22;6775;49.574;11.170;2023-03-03T13:42:27;26.50;28.00
13409;DHT22;6775;49.574;11.170;2023-03-03T13:44:59;26.20;27.70
13409;DHT22;6775;49.574;11.170;2023-03-03T13:47:37;25.90;28.10
13409;DHT22;6775;49.574;11.170;2023-03-03T13:50:19;25.90;28.50
13409;DHT22;6775;49.574;11.170;2023-03-03T13:53:02;25.60;28.40
13409;DHT22;6775;49.574;11.170;2023-03-03T13:55:35;25.30;28.90
13409;DHT22;6775;49.574;11.170;2023-03-03T13:58:13;25.10;29.10
13409;DHT22;6775;49.574;11.170;2023-03-03T14:00:54;25.00;29.40
13409;DHT22;6775;49.574;11.170;2023-03-03T14:03:40;24.90;29.50
13409;DHT22;6775;49.574;11.170;2023-03-03T14:06:16;24.80;29.60
13409;DHT22;6775;49.574;11.170;2023-03-03T14:09:21;24.40;29.90
13409;DHT22;6775;49.574;11.170;2023-03-03T14:12:01;23.70;30.40
13409;DHT22;6775;49.574;11.170;2023-03-03T14:14:41;22.70;30.90
13409;DHT22;6775;49.574;11.170;2023-03-03T14:17:16;21.50;32.30
13409;DHT22;6775;49.574;11.170;2023-03-03T14:19:55;20.40;33.80
13409;DHT22;6775;49.574;11.170;2023-03-03T14:22:40;19.50;34.60
13409;DHT22;6775;49.574;11.170;2023-03-03T14:25:11;18.50;36.10
13409;DHT22;6775;49.574;11.170;2023-03-03T14:27:53;17.90;37.20
13409;DHT22;6775;49.574;11.170;2023-03-03T14:30:35;17.30;38.10
13409;DHT22;6775;49.574;11.170;2023-03-03T14:33:19;16.70;39.50
13409;DHT22;6775;49.574;11.170;2023-03-03T14:36:00;16.20;40.20
13409;DHT22;6775;49.574;11.170;2023-03-03T14:38:47;15.70;41.00
13409;DHT22;6775;49.574;11.170;2023-03-03T14:41:19;15.20;42.10
13409;DHT22;6775;49.574;11.170;2023-03-03T14:43:58;14.90;42.90
13409;DHT22;6775;49.574;11.170;2023-03-03T14:46:31;14.50;44.80
13409;DHT22;6775;49.574;11.170;2023-03-03T14:49:01;14.20;44.00
13409;DHT22;6775;49.574;11.170;2023-03-03T14:51:37;14.00;45.10
13409;DHT22;6775;49.574;11.170;2023-03-03T14:54:15;13.80;45.30
13409;DHT22;6775;49.574;11.170;2023-03-03T14:56:58;13.60;45.30
13409;DHT22;6775;49.574;11.170;2023-03-03T14:59:27;13.50;46.00
13409;DHT22;6775;49.574;11.170;2023-03-03T15:02:29;13.30;45.90
13409;DHT22;6775;49.574;11.170;2023-03-03T15:05:18;13.10;46.70
13409;DHT22;6775;49.574;11.170;2023-03-03T15:07:50;12.90;47.20
13409;DHT22;6775;49.574;11.170;2023-03-03T15:10:33;12.80;48.20
13409;DHT22;6775;49.574;11.170;2023-03-03T15:13:23;12.80;48.50
13409;DHT22;6775;49.574;11.170;2023-03-03T15:16:04;12.60;48.50
13409;DHT22;6775;49.574;11.170;2023-03-03T15:18:52;12.40;49.30
13409;DHT22;6775;49.574;11.170;2023-03-03T15:21:24;12.30;50.30
13409;DHT22;6775;49.574;11.170;2023-03-03T15:23:57;12.20;50.30
13409;DHT22;6775;49.574;11.170;2023-03-03T15:26:37;12.10;50.70
13409;DHT22;6775;49.574;11.170;2023-03-03T15:29:15;11.90;50.90
13409;DHT22;6775;49.574;11.170;2023-03-03T15:31:50;11.80;51.30
13409;DHT22;6775;49.574;11.170;2023-03-03T15:34:25;11.70;51.60
13409;DHT22;6775;49.574;11.170;2023-03-03T15:36:59;11.60;51.90
13409;DHT22;6775;49.574;11.170;2023-03-03T15:39:36;11.40;52.30
13409;DHT22;6775;49.574;11.170;2023-03-03T15:42:13;11.40;52.60
13409;DHT22;6775;49.574;11.170;2023-03-03T15:44:50;11.30;53.30
13409;DHT22;6775;49.574;11.170;2023-03-03T15:47:38;11.30;53.60
13409;DHT22;6775;49.574;11.170;2023-03-03T15:50:18;11.30;53.80
13409;DHT22;6775;49.574;11.170;2023-03-03T15:52:59;11.30;53.90
13409;DHT22;6775;49.574;11.170;2023-03-03T15:55:46;11.20;53.90
13409;DHT22;6775;49.574;11.170;2023-03-03T15:58:48;11.10;53.90
13409;DHT22;6775;49.574;11.170;2023-03-03T16:01:23;11.10;54.20
13409;DHT22;6775;49.574;11.170;2023-03-03T16:03:56;10.90;54.90
13409;DHT22;6775;49.574;11.170;2023-03-03T16:06:36;10.80;54.60
13409;DHT22;6775;49.574;11.170;2023-03-03T16:09:16;10.80;55.00
13409;DHT22;6775;49.574;11.170;2023-03-03T16:11:48;10.60;55.30
13409;DHT22;6775;49.574;11.170;2023-03-03T16:14:40;10.60;55.60
13409;DHT22;6775;49.574;11.170;2023-03-03T16:17:21;10.50;55.70
13409;DHT22;6775;49.574;11.170;2023-03-03T16:19:58;10.40;56.20
13409;DHT22;6775;49.574;11.170;2023-03-03T16:22:40;10.30;56.30
13409;DHT22;6775;49.574;11.170;2023-03-03T16:25:35;10.20;56.60